sensor_id;sensor_type;location;lat;lon;timestamp;P1;durP1;ratioP1;P2;durP2;ratioP2
68858;SDS011;55864;49.238;8.092;2022-12-10T00:00:44;23.40;;;10.43;;
68858;SDS011;55864;49.238;8.092;2022-12-10T00:02:44;22.57;;;10.27;;
68858;SDS011;55864;49.238;8.092;2022-12-10T00:04:45;21.63;;;10.47;;
68858;SDS011;55864;49.238;8.092;2022-12-10T00:06:45;20.83;;;9.83;;
68858;SDS011;55864;49.238;8.092;2022-12-10T00:08:49;21.83;;;10.30;;
68858;SDS011;55864;49.238;8.092;2022-12-10T00:10:50;22.57;;;10.50;;
68858;SDS011;55864;49.238;8.092;2022-12-10T00:12:52;20.50;;;10.13;;
68858;SDS011;55864;49.238;8.092;2022-12-10T00:14:52;23.57;;;10.60;;
68858;SDS011;55864;49.238;8.092;2022-12-10T00:16:53;23.53;;;10.70;;
68858;SDS011;55864;49.238;8.092;2022-12-10T00:18:53;21.60;;;10.50;;
68858;SDS011;55864;49.238;8.092;2022-12-10T00:20:54;21.30;;;10.13;;
68858;SDS011;55864;49.238;8.092;2022-12-10T00:22:56;21.30;;;10.40;;
68858;SDS011;55864;49.238;8.092;2022-12-10T00:24:56;21.13;;;9.60;;
68858;SDS011;55864;49.238;8.092;2022-12-10T00:26:57;21.60;;;10.30;;
68858;SDS011;55864;49.238;8.092;2022-12-10T00:28:59;20.37;;;9.70;;
68858;SDS011;55864;49.238;8.092;2022-12-10T00:31:03;23.73;;;9.90;;
68858;SDS011;55864;49.238;8.092;2022-12-10T00:33:05;23.67;;;10.57;;
68858;SDS011;55864;49.238;8.092;2022-12-10T00:35:06;22.97;;;10.93;;
68858;SDS011;55864;49.238;8.092;2022-12-10T00:37:06;22.40;;;10.70;;
68858;SDS011;55864;49.238;8.092;2022-12-10T00:39:07;23.07;;;11.00;;
68858;SDS011;55864;49.238;8.092;2022-12-10T00:41:09;25.67;;;10.93;;
68858;SDS011;55864;49.238;8.092;2022-12-10T00:43:09;23.43;;;11.03;;
68858;SDS011;55864;49.238;8.092;2022-12-10T00:45:11;23.57;;;11.30;;
68858;SDS011;55864;49.238;8.092;2022-12-10T00:47:12;22.07;;;10.67;;
68858;SDS011;55864;49.238;8.092;2022-12-10T00:49:12;24.60;;;11.43;;
68858;SDS011;55864;49.238;8.092;2022-12-10T00:51:13;23.13;;;10.77;;
68858;SDS011;55864;49.238;8.092;2022-12-10T00:53:15;22.73;;;10.90;;
68858;SDS011;55864;49.238;8.092;2022-12-10T00:55:16;25.80;;;11.00;;
68858;SDS011;55864;49.238;8.092;2022-12-10T00:57:16;22.20;;;10.67;;
68858;SDS011;55864;49.238;8.092;2022-12-10T00:59:17;25.10;;;11.67;;
68858;SDS011;55864;49.238;8.092;2022-12-10T01:01:20;22.17;;;10.23;;
68858;SDS011;55864;49.238;8.092;2022-12-10T01:03:22;23.03;;;10.37;;
68858;SDS011;55864;49.238;8.092;2022-12-10T01:05:24;20.30;;;9.90;;
68858;SDS011;55864;49.238;8.092;2022-12-10T01:07:24;24.17;;;10.07;;
68858;SDS011;55864;49.238;8.092;2022-12-10T01:09:26;22.60;;;10.53;;
68858;SDS011;55864;49.238;8.092;2022-12-10T01:11:29;23.80;;;10.82;;
68858;SDS011;55864;49.238;8.092;2022-12-10T01:13:30;20.80;;;10.40;;
68858;SDS011;55864;49.238;8.092;2022-12-10T01:15:31;23.17;;;10.73;;
68858;SDS011;55864;49.238;8.092;2022-12-10T01:17:37;22.57;;;10.23;;
68858;SDS011;55864;49.238;8.092;2022-12-10T01:19:38;22.90;;;10.70;;
68858;SDS011;55864;49.238;8.092;2022-12-10T01:21:39;23.33;;;10.33;;
68858;SDS011;55864;49.238;8.092;2022-12-10T01:23:40;25.03;;;11.20;;
68858;SDS011;55864;49.238;8.092;2022-12-10T01:25:42;23.03;;;10.43;;
68858;SDS011;55864;49.238;8.092;2022-12-10T01:27:42;23.23;;;10.53;;
68858;SDS011;55864;49.238;8.092;2022-12-10T01:29:43;23.37;;;10.83;;
68858;SDS011;55864;49.238;8.092;2022-12-10T01:31:43;24.63;;;11.27;;
68858;SDS011;55864;49.238;8.092;2022-12-10T01:33:46;23.30;;;10.47;;
68858;SDS011;55864;49.238;8.092;2022-12-10T01:35:47;24.55;;;11.02;;
68858;SDS011;55864;49.238;8.092;2022-12-10T01:37:49;24.23;;;10.93;;
68858;SDS011;55864;49.238;8.092;2022-12-10T01:39:49;21.20;;;9.83;;
68858;SDS011;55864;49.238;8.092;2022-12-10T01:41:52;21.97;;;10.77;;
68858;SDS011;55864;49.238;8.092;2022-12-10T01:43:56;22.38;;;9.85;;
68858;SDS011;55864;49.238;8.092;2022-12-10T01:45:57;22.17;;;10.47;;
68858;SDS011;55864;49.238;8.092;2022-12-10T01:47:58;22.43;;;10.23;;
68858;SDS011;55864;49.238;8.092;2022-12-10T01:50:00;20.57;;;9.87;;
68858;SDS011;55864;49.238;8.092;2022-12-10T01:52:01;23.27;;;10.23;;
68858;SDS011;55864;49.238;8.092;2022-12-10T01:54:05;24.27;;;10.90;;
68858;SDS011;55864;49.238;8.092;2022-12-10T01:56:09;23.40;;;9.43;;
68858;SDS011;55864;49.238;8.092;2022-12-10T01:58:11;20.07;;;9.47;;
68858;SDS011;55864;49.238;8.092;2022-12-10T02:00:13;24.20;;;10.63;;
68858;SDS011;55864;49.238;8.092;2022-12-10T02:02:20;23.67;;;10.97;;
68858;SDS011;55864;49.238;8.092;2022-12-10T02:04:29;23.13;;;10.43;;
68858;SDS011;55864;49.238;8.092;2022-12-10T02:06:38;23.07;;;9.93;;
68858;SDS011;55864;49.238;8.092;2022-12-10T02:08:46;22.17;;;10.20;;
68858;SDS011;55864;49.238;8.092;2022-12-10T02:11:05;20.67;;;9.73;;
68858;SDS011;55864;49.238;8.092;2022-12-10T02:13:11;23.53;;;10.27;;
68858;SDS011;55864;49.238;8.092;2022-12-10T02:15:18;24.20;;;10.03;;
68858;SDS011;55864;49.238;8.092;2022-12-10T02:17:27;22.23;;;10.13;;
68858;SDS011;55864;49.238;8.092;2022-12-10T02:19:39;24.70;;;10.60;;
68858;SDS011;55864;49.238;8.092;2022-12-10T02:21:55;24.43;;;11.17;;
68858;SDS011;55864;49.238;8.092;2022-12-10T02:23:59;24.20;;;11.03;;
68858;SDS011;55864;49.238;8.092;2022-12-10T02:26:02;23.10;;;11.30;;
68858;SDS011;55864;49.238;8.092;2022-12-10T02:28:10;24.73;;;11.07;;
68858;SDS011;55864;49.238;8.092;2022-12-10T02:30:18;22.90;;;9.93;;
68858;SDS011;55864;49.238;8.092;2022-12-10T02:32:21;21.30;;;10.20;;
68858;SDS011;55864;49.238;8.092;2022-12-10T02:34:26;25.13;;;10.93;;
68858;SDS011;55864;49.238;8.092;2022-12-10T02:36:30;24.93;;;10.90;;
68858;SDS011;55864;49.238;8.092;2022-12-10T02:38:35;23.70;;;10.03;;
68858;SDS011;55864;49.238;8.092;2022-12-10T02:40:41;23.30;;;10.30;;
68858;SDS011;55864;49.238;8.092;2022-12-10T02:42:47;22.00;;;10.00;;
68858;SDS011;55864;49.238;8.092;2022-12-10T02:44:49;22.95;;;10.73;;
68858;SDS011;55864;49.238;8.092;2022-12-10T02:46:56;24.37;;;10.50;;
68858;SDS011;55864;49.238;8.092;2022-12-10T02:49:05;24.53;;;11.07;;
68858;SDS011;55864;49.238;8.092;2022-12-10T02:51:09;23.87;;;9.93;;
68858;SDS011;55864;49.238;8.092;2022-12-10T02:53:12;24.90;;;10.87;;
68858;SDS011;55864;49.238;8.092;2022-12-10T02:55:12;22.70;;;11.13;;
68858;SDS011;55864;49.238;8.092;2022-12-10T02:57:23;23.33;;;10.47;;
68858;SDS011;55864;49.238;8.092;2022-12-10T02:59:33;26.13;;;11.23;;
68858;SDS011;55864;49.238;8.092;2022-12-10T03:01:48;23.17;;;11.10;;
68858;SDS011;55864;49.238;8.092;2022-12-10T03:03:59;22.80;;;11.00;;
68858;SDS011;55864;49.238;8.092;2022-12-10T03:06:05;21.73;;;10.50;;
68858;SDS011;55864;49.238;8.092;2022-12-10T03:08:13;26.30;;;11.03;;
68858;SDS011;55864;49.238;8.092;2022-12-10T03:10:18;21.73;;;10.03;;
68858;SDS011;55864;49.238;8.092;2022-12-10T03:12:25;26.60;;;11.27;;
68858;SDS011;55864;49.238;8.092;2022-12-10T03:14:30;23.00;;;10.77;;
68858;SDS011;55864;49.238;8.092;2022-12-10T03:16:34;22.83;;;10.38;;
68858;SDS011;55864;49.238;8.092;2022-12-10T03:18:37;26.77;;;11.53;;
68858;SDS011;55864;49.238;8.092;2022-12-10T03:20:41;25.10;;;11.07;;
68858;SDS011;55864;49.238;8.092;2022-12-10T03:22:45;25.20;;;10.77;;
68858;SDS011;55864;49.238;8.092;2022-12-10T03:24:47;23.07;;;10.83;;
68858;SDS011;55864;49.238;8.092;2022-12-10T03:26:48;26.00;;;11.10;;
68858;SDS011;55864;49.238;8.092;2022-12-10T03:28:50;24.57;;;10.50;;
68858;SDS011;55864;49.238;8.092;2022-12-10T03:30:56;23.90;;;11.03;;
68858;SDS011;55864;49.238;8.092;2022-12-10T03:32:57;22.23;;;10.87;;
68858;SDS011;55864;49.238;8.092;2022-12-10T03:34:58;24.53;;;10.70;;
68858;SDS011;55864;49.238;8.092;2022-12-10T03:37:02;24.40;;;10.18;;
68858;SDS011;55864;49.238;8.092;2022-12-10T03:39:03;24.30;;;10.93;;
68858;SDS011;55864;49.238;8.092;2022-12-10T03:41:05;22.97;;;9.57;;
68858;SDS011;55864;49.238;8.092;2022-12-10T03:43:05;23.73;;;10.87;;
68858;SDS011;55864;49.238;8.092;2022-12-10T03:45:06;20.60;;;9.93;;
68858;SDS011;55864;49.238;8.092;2022-12-10T03:47:09;25.70;;;10.53;;
68858;SDS011;55864;49.238;8.092;2022-12-10T03:49:12;22.70;;;10.20;;
68858;SDS011;55864;49.238;8.092;2022-12-10T03:51:13;20.63;;;9.03;;
68858;SDS011;55864;49.238;8.092;2022-12-10T03:53:15;21.57;;;9.77;;
68858;SDS011;55864;49.238;8.092;2022-12-10T03:55:15;22.40;;;10.20;;
68858;SDS011;55864;49.238;8.092;2022-12-10T03:57:16;20.63;;;9.63;;
68858;SDS011;55864;49.238;8.092;2022-12-10T03:59:16;21.17;;;10.40;;
68858;SDS011;55864;49.238;8.092;2022-12-10T04:01:17;21.73;;;9.93;;
68858;SDS011;55864;49.238;8.092;2022-12-10T04:03:18;21.90;;;10.00;;
68858;SDS011;55864;49.238;8.092;2022-12-10T04:05:19;22.47;;;10.50;;
68858;SDS011;55864;49.238;8.092;2022-12-10T04:07:19;19.27;;;9.60;;
68858;SDS011;55864;49.238;8.092;2022-12-10T04:09:21;21.33;;;9.80;;
68858;SDS011;55864;49.238;8.092;2022-12-10T04:11:22;23.47;;;9.80;;
68858;SDS011;55864;49.238;8.092;2022-12-10T04:13:23;21.97;;;9.80;;
68858;SDS011;55864;49.238;8.092;2022-12-10T04:15:23;23.47;;;10.07;;
68858;SDS011;55864;49.238;8.092;2022-12-10T04:17:24;24.17;;;10.20;;
68858;SDS011;55864;49.238;8.092;2022-12-10T04:19:24;21.43;;;10.03;;
68858;SDS011;55864;49.238;8.092;2022-12-10T04:21:25;23.93;;;10.10;;
68858;SDS011;55864;49.238;8.092;2022-12-10T04:23:26;25.13;;;10.97;;
68858;SDS011;55864;49.238;8.092;2022-12-10T04:25:27;21.73;;;9.73;;
68858;SDS011;55864;49.238;8.092;2022-12-10T04:27:29;22.47;;;10.30;;
68858;SDS011;55864;49.238;8.092;2022-12-10T04:29:31;22.38;;;10.40;;
68858;SDS011;55864;49.238;8.092;2022-12-10T04:31:32;23.47;;;10.30;;
68858;SDS011;55864;49.238;8.092;2022-12-10T04:33:33;21.83;;;9.60;;
68858;SDS011;55864;49.238;8.092;2022-12-10T04:35:33;22.33;;;10.03;;
68858;SDS011;55864;49.238;8.092;2022-12-10T04:37:34;21.10;;;9.87;;
68858;SDS011;55864;49.238;8.092;2022-12-10T04:39:35;21.07;;;10.80;;
68858;SDS011;55864;49.238;8.092;2022-12-10T04:41:37;21.50;;;10.03;;
68858;SDS011;55864;49.238;8.092;2022-12-10T04:43:37;23.80;;;10.63;;
68858;SDS011;55864;49.238;8.092;2022-12-10T04:45:38;24.17;;;10.87;;
68858;SDS011;55864;49.238;8.092;2022-12-10T04:47:39;23.30;;;10.60;;
68858;SDS011;55864;49.238;8.092;2022-12-10T04:49:40;26.00;;;10.83;;
68858;SDS011;55864;49.238;8.092;2022-12-10T04:51:41;22.30;;;10.30;;
68858;SDS011;55864;49.238;8.092;2022-12-10T04:53:41;24.27;;;10.93;;
68858;SDS011;55864;49.238;8.092;2022-12-10T04:55:42;23.90;;;11.00;;
68858;SDS011;55864;49.238;8.092;2022-12-10T04:57:44;22.93;;;10.73;;
68858;SDS011;55864;49.238;8.092;2022-12-10T04:59:44;24.47;;;10.83;;
68858;SDS011;55864;49.238;8.092;2022-12-10T05:01:45;22.77;;;10.67;;
68858;SDS011;55864;49.238;8.092;2022-12-10T05:03:46;21.80;;;10.03;;
68858;SDS011;55864;49.238;8.092;2022-12-10T05:05:46;23.87;;;11.00;;
68858;SDS011;55864;49.238;8.092;2022-12-10T05:07:47;23.23;;;10.93;;
68858;SDS011;55864;49.238;8.092;2022-12-10T05:09:47;23.57;;;10.97;;
68858;SDS011;55864;49.238;8.092;2022-12-10T05:11:48;26.23;;;11.93;;
68858;SDS011;55864;49.238;8.092;2022-12-10T05:13:50;24.63;;;11.87;;
68858;SDS011;55864;49.238;8.092;2022-12-10T05:15:52;26.42;;;11.27;;
68858;SDS011;55864;49.238;8.092;2022-12-10T05:17:52;28.53;;;12.20;;
68858;SDS011;55864;49.238;8.092;2022-12-10T05:19:53;28.30;;;13.03;;
68858;SDS011;55864;49.238;8.092;2022-12-10T05:21:54;24.60;;;12.00;;
68858;SDS011;55864;49.238;8.092;2022-12-10T05:23:56;27.43;;;11.90;;
68858;SDS011;55864;49.238;8.092;2022-12-10T05:26:00;26.47;;;12.43;;
68858;SDS011;55864;49.238;8.092;2022-12-10T05:28:02;26.63;;;12.73;;
68858;SDS011;55864;49.238;8.092;2022-12-10T05:30:06;24.30;;;10.93;;
68858;SDS011;55864;49.238;8.092;2022-12-10T05:32:07;26.30;;;12.03;;
68858;SDS011;55864;49.238;8.092;2022-12-10T05:34:09;25.60;;;11.83;;
68858;SDS011;55864;49.238;8.092;2022-12-10T05:36:11;26.10;;;12.33;;
68858;SDS011;55864;49.238;8.092;2022-12-10T05:38:13;26.85;;;12.38;;
68858;SDS011;55864;49.238;8.092;2022-12-10T05:40:13;26.83;;;12.33;;
68858;SDS011;55864;49.238;8.092;2022-12-10T05:42:14;23.67;;;11.17;;
68858;SDS011;55864;49.238;8.092;2022-12-10T05:44:14;25.93;;;11.13;;
68858;SDS011;55864;49.238;8.092;2022-12-10T05:46:17;24.97;;;10.73;;
68858;SDS011;55864;49.238;8.092;2022-12-10T05:50:19;24.90;;;10.67;;
68858;SDS011;55864;49.238;8.092;2022-12-10T05:52:19;23.70;;;10.40;;
68858;SDS011;55864;49.238;8.092;2022-12-10T05:54:20;29.07;;;12.00;;
68858;SDS011;55864;49.238;8.092;2022-12-10T05:56:21;22.03;;;10.20;;
68858;SDS011;55864;49.238;8.092;2022-12-10T05:58:23;22.67;;;10.13;;
68858;SDS011;55864;49.238;8.092;2022-12-10T06:00:23;23.23;;;10.83;;
68858;SDS011;55864;49.238;8.092;2022-12-10T06:02:25;23.87;;;10.47;;
68858;SDS011;55864;49.238;8.092;2022-12-10T06:04:26;24.20;;;11.20;;
68858;SDS011;55864;49.238;8.092;2022-12-10T06:06:27;21.97;;;10.27;;
68858;SDS011;55864;49.238;8.092;2022-12-10T06:08:29;23.02;;;10.50;;
68858;SDS011;55864;49.238;8.092;2022-12-10T06:10:30;20.93;;;9.87;;
68858;SDS011;55864;49.238;8.092;2022-12-10T06:12:31;21.63;;;9.93;;
68858;SDS011;55864;49.238;8.092;2022-12-10T06:14:33;19.93;;;9.73;;
68858;SDS011;55864;49.238;8.092;2022-12-10T06:16:33;21.93;;;10.10;;
68858;SDS011;55864;49.238;8.092;2022-12-10T06:18:36;22.47;;;10.83;;
68858;SDS011;55864;49.238;8.092;2022-12-10T06:20:37;22.07;;;10.23;;
68858;SDS011;55864;49.238;8.092;2022-12-10T06:22:38;21.80;;;9.57;;
68858;SDS011;55864;49.238;8.092;2022-12-10T06:24:39;20.33;;;9.83;;
68858;SDS011;55864;49.238;8.092;2022-12-10T06:26:39;19.23;;;9.40;;
68858;SDS011;55864;49.238;8.092;2022-12-10T06:28:40;22.67;;;9.97;;
68858;SDS011;55864;49.238;8.092;2022-12-10T06:30:41;20.07;;;9.67;;
68858;SDS011;55864;49.238;8.092;2022-12-10T06:32:42;19.43;;;9.00;;
68858;SDS011;55864;49.238;8.092;2022-12-10T06:34:44;19.77;;;8.87;;
68858;SDS011;55864;49.238;8.092;2022-12-10T06:36:44;21.07;;;9.47;;
68858;SDS011;55864;49.238;8.092;2022-12-10T06:38:45;19.27;;;9.27;;
68858;SDS011;55864;49.238;8.092;2022-12-10T06:40:46;28.43;;;13.93;;
68858;SDS011;55864;49.238;8.092;2022-12-10T06:42:46;22.17;;;11.73;;
68858;SDS011;55864;49.238;8.092;2022-12-10T06:44:47;19.77;;;9.60;;
68858;SDS011;55864;49.238;8.092;2022-12-10T06:46:47;20.70;;;10.07;;
68858;SDS011;55864;49.238;8.092;2022-12-10T06:48:48;21.27;;;9.40;;
68858;SDS011;55864;49.238;8.092;2022-12-10T06:50:50;20.27;;;9.87;;
68858;SDS011;55864;49.238;8.092;2022-12-10T06:52:50;21.07;;;10.37;;
68858;SDS011;55864;49.238;8.092;2022-12-10T06:54:51;21.37;;;9.17;;
68858;SDS011;55864;49.238;8.092;2022-12-10T06:56:52;20.23;;;9.87;;
68858;SDS011;55864;49.238;8.092;2022-12-10T06:58:52;20.47;;;9.33;;
68858;SDS011;55864;49.238;8.092;2022-12-10T07:00:53;18.10;;;8.73;;
68858;SDS011;55864;49.238;8.092;2022-12-10T07:02:53;19.63;;;9.27;;
68858;SDS011;55864;49.238;8.092;2022-12-10T07:04:54;18.97;;;9.10;;
68858;SDS011;55864;49.238;8.092;2022-12-10T07:06:56;21.17;;;9.27;;
68858;SDS011;55864;49.238;8.092;2022-12-10T07:08:56;19.23;;;9.07;;
68858;SDS011;55864;49.238;8.092;2022-12-10T07:10:57;18.83;;;8.97;;
68858;SDS011;55864;49.238;8.092;2022-12-10T07:12:58;21.43;;;9.33;;
68858;SDS011;55864;49.238;8.092;2022-12-10T07:14:59;19.37;;;8.70;;
68858;SDS011;55864;49.238;8.092;2022-12-10T07:16:59;20.00;;;9.57;;
68858;SDS011;55864;49.238;8.092;2022-12-10T07:19:00;20.53;;;9.27;;
68858;SDS011;55864;49.238;8.092;2022-12-10T07:21:02;19.17;;;9.10;;
68858;SDS011;55864;49.238;8.092;2022-12-10T07:23:14;20.70;;;9.33;;
68858;SDS011;55864;49.238;8.092;2022-12-10T07:25:15;22.43;;;9.77;;
68858;SDS011;55864;49.238;8.092;2022-12-10T07:27:15;18.10;;;8.47;;
68858;SDS011;55864;49.238;8.092;2022-12-10T07:29:17;19.43;;;9.77;;
68858;SDS011;55864;49.238;8.092;2022-12-10T07:31:20;19.17;;;9.02;;
68858;SDS011;55864;49.238;8.092;2022-12-10T07:33:21;19.37;;;9.30;;
68858;SDS011;55864;49.238;8.092;2022-12-10T07:35:22;21.37;;;9.53;;
68858;SDS011;55864;49.238;8.092;2022-12-10T07:37:22;18.27;;;8.63;;
68858;SDS011;55864;49.238;8.092;2022-12-10T07:39:24;17.83;;;8.40;;
68858;SDS011;55864;49.238;8.092;2022-12-10T07:41:25;22.43;;;9.87;;
68858;SDS011;55864;49.238;8.092;2022-12-10T07:43:26;19.70;;;9.33;;
68858;SDS011;55864;49.238;8.092;2022-12-10T07:45:26;20.17;;;9.20;;
68858;SDS011;55864;49.238;8.092;2022-12-10T07:47:27;20.20;;;9.33;;
68858;SDS011;55864;49.238;8.092;2022-12-10T07:49:28;18.30;;;8.33;;
68858;SDS011;55864;49.238;8.092;2022-12-10T07:51:29;17.27;;;8.30;;
68858;SDS011;55864;49.238;8.092;2022-12-10T07:53:30;19.83;;;9.07;;
68858;SDS011;55864;49.238;8.092;2022-12-10T07:55:33;18.60;;;8.80;;
68858;SDS011;55864;49.238;8.092;2022-12-10T07:57:33;20.77;;;9.20;;
68858;SDS011;55864;49.238;8.092;2022-12-10T07:59:34;21.00;;;9.40;;
68858;SDS011;55864;49.238;8.092;2022-12-10T08:01:34;24.77;;;10.53;;
68858;SDS011;55864;49.238;8.092;2022-12-10T08:03:36;22.00;;;10.17;;
68858;SDS011;55864;49.238;8.092;2022-12-10T08:05:37;20.90;;;10.00;;
68858;SDS011;55864;49.238;8.092;2022-12-10T08:07:37;21.17;;;8.87;;
68858;SDS011;55864;49.238;8.092;2022-12-10T08:09:38;20.50;;;9.07;;
68858;SDS011;55864;49.238;8.092;2022-12-10T08:11:40;20.87;;;9.63;;
68858;SDS011;55864;49.238;8.092;2022-12-10T08:13:40;19.87;;;9.30;;
68858;SDS011;55864;49.238;8.092;2022-12-10T08:15:41;20.60;;;9.40;;
68858;SDS011;55864;49.238;8.092;2022-12-10T08:17:42;20.03;;;9.67;;
68858;SDS011;55864;49.238;8.092;2022-12-10T08:19:42;21.47;;;9.47;;
68858;SDS011;55864;49.238;8.092;2022-12-10T08:21:43;19.17;;;9.03;;
68858;SDS011;55864;49.238;8.092;2022-12-10T08:23:43;22.37;;;9.53;;
68858;SDS011;55864;49.238;8.092;2022-12-10T08:25:45;18.90;;;8.97;;
68858;SDS011;55864;49.238;8.092;2022-12-10T08:27:47;20.10;;;9.50;;
68858;SDS011;55864;49.238;8.092;2022-12-10T08:29:47;19.97;;;10.20;;
68858;SDS011;55864;49.238;8.092;2022-12-10T08:31:48;19.87;;;10.17;;
68858;SDS011;55864;49.238;8.092;2022-12-10T08:33:49;22.87;;;9.73;;
68858;SDS011;55864;49.238;8.092;2022-12-10T08:35:49;20.37;;;10.37;;
68858;SDS011;55864;49.238;8.092;2022-12-10T08:37:50;19.97;;;9.63;;
68858;SDS011;55864;49.238;8.092;2022-12-10T08:39:51;21.30;;;9.27;;
68858;SDS011;55864;49.238;8.092;2022-12-10T08:41:51;20.40;;;9.80;;
68858;SDS011;55864;49.238;8.092;2022-12-10T08:43:53;23.10;;;11.00;;
68858;SDS011;55864;49.238;8.092;2022-12-10T08:45:54;20.60;;;9.43;;
68858;SDS011;55864;49.238;8.092;2022-12-10T08:49:58;21.90;;;9.40;;
68858;SDS011;55864;49.238;8.092;2022-12-10T08:51:58;21.13;;;9.67;;
68858;SDS011;55864;49.238;8.092;2022-12-10T08:53:59;19.37;;;9.33;;
68858;SDS011;55864;49.238;8.092;2022-12-10T08:55:59;21.90;;;9.07;;
68858;SDS011;55864;49.238;8.092;2022-12-10T08:58:00;21.37;;;10.03;;
68858;SDS011;55864;49.238;8.092;2022-12-10T09:00:02;19.33;;;9.80;;
68858;SDS011;55864;49.238;8.092;2022-12-10T09:02:03;19.52;;;9.70;;
68858;SDS011;55864;49.238;8.092;2022-12-10T09:04:04;18.37;;;9.00;;
68858;SDS011;55864;49.238;8.092;2022-12-10T09:06:05;17.70;;;8.53;;
68858;SDS011;55864;49.238;8.092;2022-12-10T09:08:07;19.17;;;8.07;;
68858;SDS011;55864;49.238;8.092;2022-12-10T09:10:09;20.93;;;8.50;;
68858;SDS011;55864;49.238;8.092;2022-12-10T09:12:09;17.53;;;8.37;;
68858;SDS011;55864;49.238;8.092;2022-12-10T09:14:10;21.00;;;8.43;;
68858;SDS011;55864;49.238;8.092;2022-12-10T09:16:12;20.83;;;8.97;;
68858;SDS011;55864;49.238;8.092;2022-12-10T09:18:13;20.43;;;8.77;;
68858;SDS011;55864;49.238;8.092;2022-12-10T09:20:13;19.93;;;8.80;;
68858;SDS011;55864;49.238;8.092;2022-12-10T09:22:14;25.33;;;12.20;;
68858;SDS011;55864;49.238;8.092;2022-12-10T09:24:15;22.67;;;11.13;;
68858;SDS011;55864;49.238;8.092;2022-12-10T09:26:16;29.87;;;14.77;;
68858;SDS011;55864;49.238;8.092;2022-12-10T09:28:16;26.10;;;11.93;;
68858;SDS011;55864;49.238;8.092;2022-12-10T09:30:17;22.00;;;10.57;;
68858;SDS011;55864;49.238;8.092;2022-12-10T09:32:19;19.00;;;9.50;;
68858;SDS011;55864;49.238;8.092;2022-12-10T09:34:21;19.27;;;9.47;;
68858;SDS011;55864;49.238;8.092;2022-12-10T09:36:22;19.80;;;9.83;;
68858;SDS011;55864;49.238;8.092;2022-12-10T09:38:22;24.53;;;10.30;;
68858;SDS011;55864;49.238;8.092;2022-12-10T09:40:24;25.57;;;10.93;;
68858;SDS011;55864;49.238;8.092;2022-12-10T09:42:34;19.83;;;9.30;;
68858;SDS011;55864;49.238;8.092;2022-12-10T09:44:46;19.07;;;8.23;;
68858;SDS011;55864;49.238;8.092;2022-12-10T09:46:55;16.00;;;7.77;;
68858;SDS011;55864;49.238;8.092;2022-12-10T09:49:02;20.50;;;9.20;;
68858;SDS011;55864;49.238;8.092;2022-12-10T09:51:14;16.57;;;7.87;;
68858;SDS011;55864;49.238;8.092;2022-12-10T09:53:21;20.80;;;8.13;;
68858;SDS011;55864;49.238;8.092;2022-12-10T09:55:26;16.50;;;7.93;;
68858;SDS011;55864;49.238;8.092;2022-12-10T09:57:32;18.23;;;8.30;;
68858;SDS011;55864;49.238;8.092;2022-12-10T09:59:38;17.83;;;8.23;;
68858;SDS011;55864;49.238;8.092;2022-12-10T10:01:41;16.07;;;7.93;;
68858;SDS011;55864;49.238;8.092;2022-12-10T10:03:43;18.17;;;8.80;;
68858;SDS011;55864;49.238;8.092;2022-12-10T10:05:46;18.27;;;8.73;;
68858;SDS011;55864;49.238;8.092;2022-12-10T10:07:49;15.63;;;7.70;;
68858;SDS011;55864;49.238;8.092;2022-12-10T10:09:53;27.65;;;10.30;;
68858;SDS011;55864;49.238;8.092;2022-12-10T10:11:57;24.50;;;9.60;;
68858;SDS011;55864;49.238;8.092;2022-12-10T10:13:58;30.93;;;10.33;;
68858;SDS011;55864;49.238;8.092;2022-12-10T10:18:23;18.00;;;7.23;;
68858;SDS011;55864;49.238;8.092;2022-12-10T10:20:32;17.77;;;8.13;;
68858;SDS011;55864;49.238;8.092;2022-12-10T10:22:35;17.93;;;8.03;;
68858;SDS011;55864;49.238;8.092;2022-12-10T10:24:36;16.10;;;8.00;;
68858;SDS011;55864;49.238;8.092;2022-12-10T10:26:39;20.73;;;8.97;;
68858;SDS011;55864;49.238;8.092;2022-12-10T10:28:40;16.23;;;7.40;;
68858;SDS011;55864;49.238;8.092;2022-12-10T10:30:41;15.40;;;7.23;;
68858;SDS011;55864;49.238;8.092;2022-12-10T10:32:44;15.47;;;7.43;;
68858;SDS011;55864;49.238;8.092;2022-12-10T10:34:51;16.83;;;7.80;;
68858;SDS011;55864;49.238;8.092;2022-12-10T10:37:02;18.17;;;8.40;;
68858;SDS011;55864;49.238;8.092;2022-12-10T10:39:08;19.43;;;8.30;;
68858;SDS011;55864;49.238;8.092;2022-12-10T10:41:11;19.07;;;8.60;;
68858;SDS011;55864;49.238;8.092;2022-12-10T10:43:14;16.93;;;7.17;;
68858;SDS011;55864;49.238;8.092;2022-12-10T10:45:38;14.70;;;6.93;;
68858;SDS011;55864;49.238;8.092;2022-12-10T10:47:40;14.80;;;6.90;;
68858;SDS011;55864;49.238;8.092;2022-12-10T10:49:43;15.87;;;7.30;;
68858;SDS011;55864;49.238;8.092;2022-12-10T10:51:44;14.73;;;6.68;;
68858;SDS011;55864;49.238;8.092;2022-12-10T10:53:46;14.30;;;7.10;;
68858;SDS011;55864;49.238;8.092;2022-12-10T10:55:49;16.42;;;7.60;;
68858;SDS011;55864;49.238;8.092;2022-12-10T10:57:51;15.77;;;7.50;;
68858;SDS011;55864;49.238;8.092;2022-12-10T10:59:52;15.40;;;7.27;;
68858;SDS011;55864;49.238;8.092;2022-12-10T11:01:55;18.15;;;7.82;;
68858;SDS011;55864;49.238;8.092;2022-12-10T11:04:01;13.97;;;7.20;;
68858;SDS011;55864;49.238;8.092;2022-12-10T11:06:04;13.30;;;5.93;;
68858;SDS011;55864;49.238;8.092;2022-12-10T11:08:06;12.80;;;5.90;;
68858;SDS011;55864;49.238;8.092;2022-12-10T11:10:16;12.07;;;5.60;;
68858;SDS011;55864;49.238;8.092;2022-12-10T11:12:27;12.70;;;5.95;;
68858;SDS011;55864;49.238;8.092;2022-12-10T11:14:30;13.23;;;6.00;;
68858;SDS011;55864;49.238;8.092;2022-12-10T11:16:32;15.33;;;6.10;;
68858;SDS011;55864;49.238;8.092;2022-12-10T11:18:33;12.60;;;5.90;;
68858;SDS011;55864;49.238;8.092;2022-12-10T11:20:36;14.00;;;6.25;;
68858;SDS011;55864;49.238;8.092;2022-12-10T11:22:36;14.07;;;6.40;;
68858;SDS011;55864;49.238;8.092;2022-12-10T11:24:37;13.70;;;6.53;;
68858;SDS011;55864;49.238;8.092;2022-12-10T11:26:40;13.17;;;6.70;;
68858;SDS011;55864;49.238;8.092;2022-12-10T11:28:54;12.73;;;6.43;;
68858;SDS011;55864;49.238;8.092;2022-12-10T11:31:08;11.70;;;5.83;;
68858;SDS011;55864;49.238;8.092;2022-12-10T11:33:20;13.07;;;5.87;;
68858;SDS011;55864;49.238;8.092;2022-12-10T11:35:30;11.80;;;5.60;;
68858;SDS011;55864;49.238;8.092;2022-12-10T11:37:47;13.13;;;6.20;;
68858;SDS011;55864;49.238;8.092;2022-12-10T11:40:01;11.70;;;5.60;;
68858;SDS011;55864;49.238;8.092;2022-12-10T11:42:14;13.63;;;5.77;;
68858;SDS011;55864;49.238;8.092;2022-12-10T11:44:25;22.87;;;10.50;;
68858;SDS011;55864;49.238;8.092;2022-12-10T11:46:52;24.80;;;12.17;;
68858;SDS011;55864;49.238;8.092;2022-12-10T11:49:03;17.33;;;8.50;;
68858;SDS011;55864;49.238;8.092;2022-12-10T11:51:16;16.63;;;9.40;;
68858;SDS011;55864;49.238;8.092;2022-12-10T11:53:28;14.13;;;6.80;;
68858;SDS011;55864;49.238;8.092;2022-12-10T11:55:47;12.50;;;6.43;;
68858;SDS011;55864;49.238;8.092;2022-12-10T11:57:56;12.83;;;6.20;;
68858;SDS011;55864;49.238;8.092;2022-12-10T12:00:20;11.90;;;5.20;;
68858;SDS011;55864;49.238;8.092;2022-12-10T12:02:34;11.37;;;5.90;;
68858;SDS011;55864;49.238;8.092;2022-12-10T12:04:55;13.33;;;6.30;;
68858;SDS011;55864;49.238;8.092;2022-12-10T12:07:17;11.93;;;6.00;;
68858;SDS011;55864;49.238;8.092;2022-12-10T12:09:34;11.67;;;5.60;;
68858;SDS011;55864;49.238;8.092;2022-12-10T12:11:51;11.47;;;5.33;;